Time;durP1;ratioP1;P1;durP2;ratioP2;P2;SDS_P1;SDS_P2;PMS_P1;PMS_P2;Temp;Humidity;BMP_temperature;BMP_pressure;BME280_temperature;BME280_humidity;BME280_pressure;Samples;Min_cycle;Max_cycle;Signal;HPM_P1;HPM_P2
2022/10/27 00:02:06;;;;;;;34.10;19.20;;;;;;;12.98;63.90;99858.66;224307;1234;139758;-65
2022/10/27 00:07:10;;;;;;;33.40;18.70;;;;;;;12.99;64.06;99859.14;224759;1233;139806;-65
2022/10/27 00:12:13;;;;;;;34.70;19.10;;;;;;;13.01;64.06;99855.98;224138;1236;140311;-61
2022/10/27 00:17:16;;;;;;;32.70;18.80;;;;;;;13.09;64.05;99859.30;224025;1236;139813;-62
2022/10/27 00:22:20;;;;;;;31.90;19.50;;;;;;;13.10;63.97;99858.35;224086;1236;139172;-62
2022/10/27 00:27:23;;;;;;;33.70;18.80;;;;;;;13.11;64.09;99864.17;223995;1229;139944;-62
2022/10/27 00:32:26;;;;;;;30.50;18.90;;;;;;;13.11;64.15;99867.57;224064;1237;140057;-61
2022/10/27 00:37:30;;;;;;;31.50;17.90;;;;;;;13.05;63.98;99869.88;224228;1236;139126;-62
2022/10/27 00:42:33;;;;;;;34.40;18.70;;;;;;;12.93;63.74;99872.14;224080;1237;139388;-61
2022/10/27 00:47:38;;;;;;;29.00;17.50;;;;;;;12.79;63.68;99870.86;224315;1229;139572;-62
2022/10/27 00:52:52;;;;;;;31.90;16.90;;;;;;;12.66;63.68;99870.34;224035;1235;139058;-62
2022/10/27 00:58:01;;;;;;;28.10;15.50;;;;;;;12.51;63.30;99866.60;224322;1236;140684;-62
2022/10/27 01:03:08;;;;;;;26.60;15.20;;;;;;;12.32;62.66;99863.18;224684;1230;140156;-62
2022/10/27 01:08:13;;;;;;;30.00;14.90;;;;;;;12.10;62.70;99869.77;224673;1234;140150;-63
2022/10/27 01:13:17;;;;;;;;;;;;;;;11.88;62.53;99873.44;224753;1233;139039;-62
2022/10/27 01:18:49;;;;;;;22.80;14.40;;;;;;;11.68;62.81;99875.72;224245;1236;128127;-61
2022/10/27 01:24:18;;;;;;;24.10;15.10;;;;;;;11.51;62.85;99875.90;223843;1235;139167;-61
2022/10/27 01:29:40;;;;;;;25.30;14.80;;;;;;;11.38;63.03;99875.86;224346;1227;140275;-65
2022/10/27 01:35:17;;;;;;;25.60;15.00;;;;;;;11.29;63.25;99876.14;224207;1230;139893;-62
2022/10/27 01:40:29;;;;;;;24.60;15.80;;;;;;;11.22;63.43;99880.64;224143;1236;138950;-60
2022/10/27 01:45:36;;;;;;;31.20;14.90;;;;;;;11.17;63.42;99878.19;223916;1236;139261;-62
2022/10/27 01:50:41;;;;;;;24.20;15.10;;;;;;;11.15;63.27;99881.33;223784;1235;141188;-60
2022/10/27 01:56:04;;;;;;;28.70;15.90;;;;;;;11.12;63.23;99883.95;223854;1236;140025;-62
2022/10/27 02:01:27;;;;;;;26.60;15.30;;;;;;;11.09;63.27;99885.32;224237;1236;139433;-62
2022/10/27 02:06:42;;;;;;;31.80;16.40;;;;;;;11.06;63.68;99885.85;224304;1236;139363;-65
2022/10/27 02:11:50;;;;;;;32.10;15.40;;;;;;;11.04;63.56;99884.91;224336;1237;139935;-61
2022/10/27 02:16:56;;;;;;;31.50;16.10;;;;;;;11.01;63.62;99882.23;224205;1236;139477;-61
2022/10/27 02:22:04;;;;;;;28.40;15.80;;;;;;;10.92;63.81;99888.54;224046;1236;139420;-60
2022/10/27 02:27:12;;;;;;;28.00;15.90;;;;;;;10.84;63.65;99892.26;224030;1229;139683;-61
2022/10/27 02:32:20;;;;;;;28.10;16.40;;;;;;;10.77;63.52;99901.31;224152;1232;139246;-61
2022/10/27 02:37:31;;;;;;;27.60;16.10;;;;;;;10.73;63.81;99908.43;224553;1236;140231;-61
2022/10/27 02:42:34;;;;;;;26.90;15.60;;;;;;;10.75;63.72;99909.60;223873;1235;140207;-61
2022/10/27 02:47:37;;;;;;;29.20;16.00;;;;;;;10.77;63.76;99911.27;224384;1237;139721;-62
2022/10/27 02:52:43;;;;;;;29.50;15.60;;;;;;;10.76;63.78;99911.67;226388;1240;139253;-60
2022/10/27 02:57:46;;;;;;;34.90;16.00;;;;;;;10.77;63.91;99917.86;226213;1244;139576;-67
2022/10/27 03:02:49;;;;;;;139.00;83.80;;;;;;;10.76;64.08;99915.94;226085;1240;140024;-68
2022/10/27 03:07:52;;;;;;;34.00;19.60;;;;;;;10.86;64.87;99922.54;226237;1243;139265;-63
2022/10/27 03:12:55;;;;;;;27.60;17.40;;;;;;;11.05;65.56;99926.77;226157;1242;139377;-60
2022/10/27 03:17:58;;;;;;;32.90;16.60;;;;;;;11.26;65.70;99927.66;226146;1243;139342;-61
2022/10/27 03:23:01;;;;;;;108.10;66.80;;;;;;;11.39;64.90;99928.64;227167;1234;139642;-62
2022/10/27 03:28:04;;;;;;;27.40;17.00;;;;;;;11.41;64.49;99932.60;226001;1243;140947;-62
2022/10/27 03:33:07;;;;;;;27.00;16.00;;;;;;;11.32;63.91;99936.97;226024;1243;140388;-59
2022/10/27 03:38:11;;;;;;;28.30;17.00;;;;;;;11.17;63.70;99944.11;226121;1238;139396;-59
2022/10/27 03:43:14;;;;;;;32.10;19.10;;;;;;;11.06;63.44;99949.98;227342;1234;139925;-62
2022/10/27 03:48:17;;;;;;;28.20;15.90;;;;;;;10.94;63.52;99947.73;226220;1243;139201;-64
2022/10/27 03:53:20;;;;;;;35.70;15.30;;;;;;;10.81;63.20;99948.53;226073;1243;139122;-63
2022/10/27 03:58:23;;;;;;;29.30;15.40;;;;;;;10.71;63.43;99954.67;226042;1241;140996;-63
2022/10/27 04:03:26;;;;;;;29.70;15.90;;;;;;;10.61;63.22;99956.59;226162;1244;139601;-62
2022/10/27 04:08:29;;;;;;;57.50;25.10;;;;;;;10.50;63.27;99956.20;226070;1244;139412;-61
2022/10/27 04:13:32;;;;;;;38.90;17.50;;;;;;;10.49;63.52;99957.33;226117;1245;140772;-64
2022/10/27 04:18:35;;;;;;;31.80;15.00;;;;;;;10.53;63.65;99958.94;227167;1227;140365;-61
2022/10/27 04:23:38;;;;;;;31.40;15.10;;;;;;;10.51;63.37;99970.73;226178;1236;140029;-60
2022/10/27 04:28:41;;;;;;;36.10;15.30;;;;;;;10.43;63.49;99966.99;226082;1240;139789;-61
2022/10/27 04:33:43;;;;;;;28.70;15.70;;;;;;;10.39;63.58;99968.79;226148;1239;140142;-62
2022/10/27 04:38:50;;;;;;;33.20;15.70;;;;;;;10.38;63.66;99962.62;226124;1243;140186;-61
2022/10/27 04:43:53;;;;;;;33.10;15.30;;;;;;;10.36;63.76;99960.05;226314;1240;139354;-62
2022/10/27 04:48:57;;;;;;;36.30;16.50;;;;;;;10.30;63.53;99961.41;225970;1236;139773;-62
2022/10/27 04:54:01;;;;;;;31.10;16.60;;;;;;;10.25;63.64;99974.40;226500;1242;139763;-64
2022/10/27 04:59:04;;;;;;;34.20;16.20;;;;;;;10.19;63.98;99978.18;226329;1238;140537;-63
2022/10/27 05:04:07;;;;;;;33.70;15.30;;;;;;;10.19;63.94;99987.22;227295;1233;140826;-60
2022/10/27 05:09:09;;;;;;;29.50;14.30;;;;;;;10.19;63.86;99990.08;226172;1243;141519;-61
2022/10/27 05:14:12;;;;;;;26.90;15.50;;;;;;;10.21;64.01;99991.92;227114;1241;141530;-64
2022/10/27 05:19:15;;;;;;;25.90;16.10;;;;;;;10.23;63.82;99996.13;227293;1232;139509;-69
2022/10/27 05:24:18;;;;;;;31.90;15.90;;;;;;;10.20;64.00;99998.71;225989;1244;140583;-65
2022/10/27 05:29:21;;;;;;;22.90;15.10;;;;;;;10.17;63.81;99997.41;225973;1243;140026;-68
2022/10/27 05:34:24;;;;;;;35.10;17.50;;;;;;;10.13;64.06;100003.12;226162;1237;140786;-63
2022/10/27 05:39:27;;;;;;;35.90;16.80;;;;;;;10.12;63.89;100009.35;227262;1242;140495;-64
2022/10/27 05:44:30;;;;;;;32.60;15.60;;;;;;;10.10;64.07;100015.64;225971;1244;140866;-64
2022/10/27 05:49:33;;;;;;;35.90;16.20;;;;;;;10.06;64.30;100021.49;226119;1242;139863;-60
2022/10/27 05:54:36;;;;;;;32.60;14.80;;;;;;;10.10;64.05;100025.22;226403;1236;140909;-61
2022/10/27 05:59:39;;;;;;;35.30;15.80;;;;;;;10.16;64.15;100031.70;226338;1242;140879;-63
2022/10/27 06:04:42;;;;;;;33.30;15.20;;;;;;;10.17;64.00;100036.94;226185;1235;140790;-60
2022/10/27 06:09:45;;;;;;;29.20;15.80;;;;;;;10.22;64.18;100044.40;227342;1234;140210;-62
2022/10/27 06:14:48;;;;;;;35.90;15.70;;;;;;;10.25;63.84;100051.89;226154;1240;140118;-64
2022/10/27 06:19:51;;;;;;;27.70;15.00;;;;;;;10.25;64.10;100064.66;227115;1236;139364;-65
2022/10/27 06:24:54;;;;;;;27.90;15.40;;;;;;;10.29;64.12;100062.73;226161;1241;140017;-63
2022/10/27 06:29:57;;;;;;;30.40;14.70;;;;;;;10.28;64.04;100067.73;226081;1235;140043;-63
2022/10/27 06:35:00;;;;;;;27.40;14.80;;;;;;;10.30;64.31;100074.55;226245;1242;140134;-63
2022/10/27 06:40:09;;;;;;;27.00;15.10;;;;;;;10.36;64.59;100080.31;227211;1236;139596;-65
2022/10/27 06:45:12;;;;;;;40.30;16.60;;;;;;;10.48;64.63;100079.82;226207;1244;140634;-65
2022/10/27 06:50:15;;;;;;;21.30;14.10;;;;;;;10.62;64.88;100081.29;226164;1243;140072;-64
2022/10/27 06:55:18;;;;;;;21.20;14.90;;;;;;;10.74;64.97;100082.88;227403;1240;139278;-62
2022/10/27 07:00:22;;;;;;;26.60;15.00;;;;;;;10.85;64.83;100083.06;227277;1234;139518;-60
2022/10/27 07:05:25;;;;;;;30.00;14.90;;;;;;;10.95;64.85;100084.21;226125;1244;139832;-62
2022/10/27 07:10:27;;;;;;;27.60;14.40;;;;;;;11.03;64.96;100093.24;226073;1235;139625;-61
2022/10/27 07:15:32;;;;;;;23.80;12.50;;;;;;;11.13;65.14;100098.27;226100;1243;140910;-62
2022/10/27 07:20:38;;;;;;;20.30;9.90;;;;;;;11.36;65.91;100105.34;225976;1241;139626;-61
2022/10/27 07:25:41;;;;;;;;;;;;;;;11.73;66.69;100105.18;227284;1238;140492;-62
2022/10/27 07:30:46;;;;;;;23.90;9.40;;;;;;;12.08;66.82;100108.39;225984;1242;126582;-62
2022/10/27 07:35:51;;;;;;;16.50;9.70;;;;;;;12.45;66.87;100108.98;226109;1240;141666;-60
2022/10/27 07:40:55;;;;;;;24.30;10.90;;;;;;;12.76;66.79;100112.27;226152;1244;139625;-61
2022/10/27 07:45:58;;;;;;;21.00;11.20;;;;;;;13.04;66.41;100119.88;226229;1244;140067;-61
2022/10/27 07:51:01;;;;;;;19.40;11.50;;;;;;;13.25;65.97;100121.39;227014;1236;139633;-61
2022/10/27 07:56:04;;;;;;;24.80;11.20;;;;;;;13.43;65.77;100122.71;226081;1244;139627;-63
2022/10/27 08:01:07;;;;;;;18.80;9.80;;;;;;;13.57;65.55;100125.84;226217;1245;139688;-61
2022/10/27 08:06:36;;;;;;;23.90;11.20;;;;;;;13.68;65.25;100126.30;227164;1233;139174;-59
2022/10/27 08:11:39;;;;;;;15.60;9.70;;;;;;;13.80;65.33;100126.52;226228;1248;139539;-59
2022/10/27 08:16:43;;;;;;;23.80;10.30;;;;;;;13.97;65.18;100128.86;226163;1244;141790;-62
2022/10/27 08:21:46;;;;;;;22.50;10.10;;;;;;;14.15;65.09;100130.86;225888;1241;141167;-61
2022/10/27 08:26:49;;;;;;;19.50;9.90;;;;;;;14.34;65.09;100135.48;226228;1244;139452;-64
2022/10/27 08:31:53;;;;;;;16.00;10.00;;;;;;;14.50;64.95;100141.64;227400;1234;139492;-61
2022/10/27 08:36:56;;;;;;;17.10;10.50;;;;;;;14.64;64.84;100147.05;227204;1237;139964;-62
2022/10/27 08:42:20;;;;;;;19.00;11.00;;;;;;;14.76;64.48;100148.84;226127;1229;140082;-63
2022/10/27 08:47:25;;;;;;;27.60;16.20;;;;;;;14.87;64.39;100144.54;227199;1237;139293;-66
2022/10/27 08:52:40;;;;;;;15.00;9.00;;;;;;;15.16;66.25;100147.92;225968;1244;139283;-64
2022/10/27 08:58:05;;;;;;;17.50;9.70;;;;;;;15.92;67.28;100144.65;226072;1243;140250;-64
2022/10/27 09:03:40;;;;;;;18.50;8.30;;;;;;;16.42;66.64;100133.35;226147;1248;140070;-65
2022/10/27 09:09:08;;;;;;;16.40;9.70;;;;;;;16.93;66.19;100132.17;225613;1243;139526;-64
2022/10/27 09:14:38;;;;;;;14.80;8.10;;;;;;;17.14;64.56;100131.09;226027;1245;139027;-65
2022/10/27 09:19:55;;;;;;;16.40;9.00;;;;;;;17.36;64.76;100141.13;226131;1250;139633;-69
2022/10/27 09:25:04;;;;;;;17.00;9.20;;;;;;;17.46;63.51;100149.73;226990;1241;139211;-64
2022/10/27 09:30:12;;;;;;;15.20;10.00;;;;;;;17.44;62.90;100153.46;226032;1240;139140;-63
2022/10/27 09:35:29;;;;;;;15.70;9.00;;;;;;;17.41;62.46;100155.98;226180;1244;139964;-65
2022/10/27 09:40:33;;;;;;;17.20;10.20;;;;;;;17.48;62.71;100152.42;226046;1240;140636;-64
2022/10/27 09:45:37;;;;;;;16.50;8.20;;;;;;;17.52;62.42;100148.21;227175;1234;139981;-64
2022/10/27 09:51:20;;;;;;;17.20;9.00;;;;;;;17.62;62.63;100147.96;226967;1237;140516;-61
2022/10/27 09:56:35;;;;;;;15.40;8.60;;;;;;;17.67;61.73;100150.66;225827;1240;140545;-66
2022/10/27 10:01:48;;;;;;;17.40;9.60;;;;;;;17.69;61.90;100148.38;226300;1245;139888;-65
2022/10/27 10:06:57;;;;;;;18.20;10.50;;;;;;;17.69;61.30;100142.62;226115;1240;139153;-63
2022/10/27 10:12:24;;;;;;;14.40;9.90;;;;;;;17.72;60.96;100146.53;227097;1238;139904;-64
2022/10/27 10:17:27;;;;;;;20.00;10.40;;;;;;;17.80;60.86;100143.66;226197;1237;139453;-66
2022/10/27 10:22:33;;;;;;;17.50;11.30;;;;;;;17.94;60.73;100140.98;227168;1230;139739;-63
2022/10/27 10:27:37;;;;;;;22.60;10.90;;;;;;;18.02;60.61;100137.15;226020;1244;139810;-64
2022/10/27 10:32:47;;;;;;;19.80;9.80;;;;;;;18.09;60.29;100135.95;226020;1245;139970;-63
2022/10/27 10:37:51;;;;;;;18.10;9.50;;;;;;;18.13;60.12;100131.80;226195;1244;139448;-63
2022/10/27 10:43:13;;;;;;;14.30;8.70;;;;;;;18.18;59.92;100127.46;227300;1242;139321;-65
2022/10/27 10:48:49;;;;;;;15.00;7.70;;;;;;;18.21;59.80;100123.89;226237;1245;139307;-65
2022/10/27 10:53:57;;;;;;;13.40;6.60;;;;;;;18.26;59.65;100128.90;227024;1241;140152;-65
2022/10/27 10:59:00;;;;;;;12.00;5.30;;;;;;;18.32;59.49;100122.71;227301;1240;140088;-63
2022/10/27 11:04:05;;;;;;;12.30;5.50;;;;;;;18.37;59.22;100124.29;226251;1245;139549;-65
2022/10/27 11:09:10;;;;;;;7.20;3.90;;;;;;;18.44;59.59;100127.67;226878;1237;139745;-62
2022/10/27 11:14:17;;;;;;;10.40;4.90;;;;;;;18.60;59.97;100128.77;225703;1240;140694;-68
2022/10/27 11:19:22;;;;;;;8.60;5.20;;;;;;;18.66;59.35;100121.75;226282;1243;139363;-66
2022/10/27 11:25:03;;;;;;;12.70;6.10;;;;;;;18.70;59.15;100121.20;226007;1244;139700;-67
2022/10/27 11:30:24;;;;;;;11.90;5.10;;;;;;;18.78;58.91;100113.55;226344;1238;139484;-64
2022/10/27 11:36:06;;;;;;;8.80;4.30;;;;;;;18.85;58.77;100110.14;226109;1244;141979;-62
2022/10/27 11:41:29;;;;;;;9.90;4.40;;;;;;;18.97;58.63;100106.84;227115;1237;140400;-63
2022/10/27 11:46:42;;;;;;;13.20;5.00;;;;;;;19.13;58.42;100103.89;227123;1235;139578;-63
2022/10/27 11:51:55;;;;;;;8.70;4.20;;;;;;;19.27;58.11;100102.39;226028;1240;139845;-65
2022/10/27 11:57:39;;;;;;;8.50;3.90;;;;;;;19.37;57.67;100097.13;225336;1237;139508;-63
2022/10/27 12:03:01;;;;;;;34.20;21.90;;;;;;;19.48;57.96;100096.02;225402;1237;140985;-65
2022/10/27 12:08:12;;;;;;;9.80;4.60;;;;;;;19.60;57.52;100090.52;226593;1234;139664;-65
2022/10/27 12:13:27;;;;;;;9.70;5.00;;;;;;;19.68;57.49;100084.55;225322;1244;141015;-66
2022/10/27 12:18:41;;;;;;;9.20;5.60;;;;;;;19.75;57.22;100084.44;225152;1235;139951;-63
2022/10/27 12:23:58;;;;;;;8.20;5.10;;;;;;;19.79;57.26;100081.08;225281;1245;139744;-62
2022/10/27 12:29:05;;;;;;;9.20;4.70;;;;;;;19.84;56.90;100083.14;225112;1243;140229;-62
2022/10/27 12:34:12;;;;;;;10.10;4.20;;;;;;;19.89;56.62;100082.73;225107;1244;140522;-66
2022/10/27 12:39:24;;;;;;;11.40;5.00;;;;;;;19.93;56.24;100086.59;225355;1243;139603;-68
2022/10/27 12:44:45;;;;;;;7.20;3.90;;;;;;;19.97;56.38;100083.00;226516;1226;140434;-68
2022/10/27 12:50:14;;;;;;;7.00;2.80;;;;;;;20.02;55.99;100074.27;225483;1239;138917;-67
2022/10/27 12:55:35;;;;;;;3.40;2.20;;;;;;;20.05;55.44;100074.13;226724;1226;139719;-63
2022/10/27 13:01:05;;;;;;;4.30;3.10;;;;;;;20.05;54.62;100076.29;226388;1237;140166;-62
2022/10/27 13:06:18;;;;;;;4.90;2.90;;;;;;;20.08;54.68;100073.33;226601;1234;140520;-64
2022/10/27 13:11:46;;;;;;;7.50;2.90;;;;;;;20.19;54.44;100073.70;225292;1237;139775;-73
2022/10/27 13:17:02;;;;;;;7.20;2.80;;;;;;;20.29;54.16;100070.36;225358;1243;139492;-66
2022/10/27 13:22:23;;;;;;;5.50;2.80;;;;;;;20.30;53.78;100073.11;225267;1247;141763;-65
2022/10/27 13:27:56;;;;;;;4.70;2.40;;;;;;;20.28;53.74;100068.95;226351;1234;139213;-68
2022/10/27 13:32:59;;;;;;;6.70;2.90;;;;;;;20.25;53.54;100066.39;224883;1236;140345;-67
2022/10/27 13:38:23;;;;;;;5.10;3.20;;;;;;;20.22;53.42;100062.82;225299;1243;140530;-67
2022/10/27 13:43:26;;;;;;;4.40;2.50;;;;;;;20.20;53.72;100064.08;226417;1237;139784;-72
2022/10/27 13:48:32;;;;;;;8.10;2.90;;;;;;;20.17;53.57;100066.29;225370;1233;139261;-64
2022/10/27 13:53:36;;;;;;;6.50;2.90;;;;;;;20.16;53.54;100063.20;225314;1241;139692;-68
2022/10/27 13:59:02;;;;;;;35.80;22.60;;;;;;;20.15;53.59;100063.23;225310;1242;140241;-66
2022/10/27 14:04:26;;;;;;;10.50;5.40;;;;;;;20.14;53.37;100067.12;226066;1241;139909;-65
2022/10/27 14:09:34;;;;;;;11.20;6.60;;;;;;;20.11;53.90;100065.19;226012;1244;139829;-65
2022/10/27 14:14:39;;;;;;;10.50;4.80;;;;;;;20.09;53.96;100065.73;227229;1241;139709;-63
2022/10/27 14:20:02;;;;;;;10.30;4.50;;;;;;;20.06;53.90;100068.90;226122;1238;139700;-64
2022/10/27 14:25:14;;;;;;;10.60;6.20;;;;;;;20.02;53.78;100074.02;226208;1237;139747;-64
2022/10/27 14:30:21;;;;;;;7.80;4.80;;;;;;;20.00;53.94;100076.37;225960;1242;139873;-63
2022/10/27 14:35:29;;;;;;;12.50;6.20;;;;;;;19.98;53.79;100082.89;226112;1249;139088;-67
2022/10/27 14:40:37;;;;;;;9.50;4.50;;;;;;;19.94;53.78;100085.93;227218;1232;139276;-65
2022/10/27 14:45:42;;;;;;;9.40;5.20;;;;;;;19.91;53.77;100086.73;225886;1242;139187;-63
2022/10/27 14:50:45;;;;;;;12.00;5.60;;;;;;;19.86;54.00;100085.33;225853;1243;139160;-66
2022/10/27 14:56:01;;;;;;;9.70;4.60;;;;;;;19.83;54.16;100085.05;226138;1244;140786;-64
2022/10/27 15:01:18;;;;;;;14.10;7.70;;;;;;;19.79;54.79;100088.41;226916;1237;139752;-62
2022/10/27 15:06:32;;;;;;;9.20;5.80;;;;;;;19.76;54.58;100090.50;225823;1243;142019;-63
2022/10/27 15:11:36;;;;;;;13.30;5.40;;;;;;;19.74;54.47;100093.52;227428;1234;139271;-67
2022/10/27 15:16:39;;;;;;;12.80;5.30;;;;;;;19.71;54.36;100093.98;226480;1234;139507;-66
2022/10/27 15:21:44;;;;;;;13.10;5.20;;;;;;;19.67;54.41;100094.13;226587;1238;139147;-68
2022/10/27 15:26:48;;;;;;;11.00;4.80;;;;;;;19.56;54.33;100097.34;226591;1238;140259;-68
2022/10/27 15:31:58;;;;;;;10.10;4.90;;;;;;;19.42;54.55;100101.52;227617;1227;140232;-65
2022/10/27 15:37:13;;;;;;;14.60;5.70;;;;;;;19.31;55.07;100107.30;227318;1227;139767;-63
2022/10/27 15:42:21;;;;;;;15.20;5.50;;;;;;;19.17;54.91;100107.94;226445;1238;140194;-63
2022/10/27 15:47:45;;;;;;;12.50;5.40;;;;;;;19.07;55.83;100106.01;226462;1236;139457;-63
2022/10/27 15:52:51;;;;;;;15.10;6.00;;;;;;;19.12;56.32;100110.27;226524;1241;142403;-62
2022/10/27 15:57:54;;;;;;;14.40;6.20;;;;;;;19.16;56.49;100109.42;226272;1237;139415;-63
2022/10/27 16:03:01;;;;;;;16.10;6.90;;;;;;;19.13;56.32;100106.06;227516;1243;139788;-62
2022/10/27 16:08:13;;;;;;;26.20;8.10;;;;;;;18.99;55.89;100106.61;226763;1241;139852;-62
2022/10/27 16:13:20;;;;;;;18.80;7.60;;;;;;;18.81;55.77;100116.15;226515;1240;139228;-66
2022/10/27 16:18:23;;;;;;;26.20;8.50;;;;;;;18.63;56.10;100121.85;227393;1235;139342;-63
2022/10/27 16:23:27;;;;;;;16.60;7.30;;;;;;;18.46;56.14;100122.27;227386;1234;140291;-64
2022/10/27 16:28:36;;;;;;;25.30;13.80;;;;;;;18.33;56.41;100124.17;226548;1241;139514;-62
2022/10/27 16:33:40;;;;;;;19.80;8.70;;;;;;;18.19;56.55;100124.58;226618;1249;139541;-62
2022/10/27 16:38:43;;;;;;;20.50;7.70;;;;;;;17.93;56.32;100129.60;226680;1238;139189;-62
2022/10/27 16:43:46;;;;;;;16.40;7.70;;;;;;;17.66;56.51;100127.21;226771;1242;140696;-61
2022/10/27 16:48:49;;;;;;;16.60;7.20;;;;;;;17.44;56.73;100140.33;226472;1235;139579;-62
2022/10/27 16:53:52;;;;;;;14.00;7.20;;;;;;;17.23;56.94;100146.36;226551;1241;139479;-65
2022/10/27 16:58:55;;;;;;;22.00;7.70;;;;;;;17.05;57.26;100148.88;226382;1226;139729;-63
2022/10/27 17:03:59;;;;;;;29.00;7.70;;;;;;;16.93;57.58;100148.30;226586;1234;140570;-65
2022/10/27 17:09:03;;;;;;;28.20;7.30;;;;;;;16.86;57.87;100149.58;226577;1235;140221;-62
2022/10/27 17:14:07;;;;;;;33.60;7.70;;;;;;;16.77;58.05;100149.79;226652;1239;139765;-62
2022/10/27 17:19:10;;;;;;;19.20;7.90;;;;;;;16.68;58.40;100148.40;227515;1236;139188;-62
2022/10/27 17:24:13;;;;;;;18.60;7.70;;;;;;;16.55;58.49;100153.06;226600;1239;140826;-61
2022/10/27 17:29:16;;;;;;;14.50;7.70;;;;;;;16.44;58.61;100155.13;226406;1241;139799;-65
2022/10/27 17:34:20;;;;;;;25.90;8.00;;;;;;;16.32;58.91;100157.55;226644;1241;139700;-64
2022/10/27 17:39:23;;;;;;;20.20;7.30;;;;;;;16.20;59.11;100158.16;227452;1235;139393;-63
2022/10/27 17:44:26;;;;;;;26.30;8.20;;;;;;;16.09;59.32;100160.17;226572;1237;139246;-64
2022/10/27 17:49:31;;;;;;;23.80;8.30;;;;;;;15.96;59.42;100161.02;227594;1227;140254;-62
2022/10/27 17:54:37;;;;;;;30.70;8.60;;;;;;;15.85;59.72;100162.31;227558;1234;139557;-60
2022/10/27 17:59:40;;;;;;;;;;;;;;;15.79;59.88;100167.48;227521;1227;140029;-60
2022/10/27 18:04:46;;;;;;;23.20;8.00;;;;;;;15.73;60.13;100169.48;226527;1239;126077;-63
2022/10/27 18:09:49;;;;;;;25.40;8.40;;;;;;;15.67;60.46;100164.72;226531;1242;139318;-63
2022/10/27 18:14:54;;;;;;;27.50;9.10;;;;;;;15.60;60.42;100168.55;227462;1226;139248;-61
2022/10/27 18:20:17;;;;;;;33.40;9.70;;;;;;;15.48;60.36;100167.52;226691;1240;139867;-64
2022/10/27 18:25:21;;;;;;;33.90;9.90;;;;;;;15.39;60.73;100164.36;227531;1239;140161;-62
2022/10/27 18:30:24;;;;;;;33.80;11.40;;;;;;;15.29;60.91;100164.25;226541;1241;139392;-62
2022/10/27 18:35:31;;;;;;;34.00;10.90;;;;;;;15.20;61.07;100169.83;226497;1234;140841;-65
2022/10/27 18:40:37;;;;;;;31.40;10.20;;;;;;;15.11;61.15;100176.14;226523;1245;139806;-63
2022/10/27 18:45:39;;;;;;;36.70;11.80;;;;;;;15.06;61.20;100178.40;227335;1230;140767;-67
2022/10/27 18:50:42;;;;;;;33.00;11.60;;;;;;;15.04;61.35;100182.84;226407;1237;139814;-62
2022/10/27 18:55:46;;;;;;;47.30;14.60;;;;;;;15.00;61.49;100187.89;227518;1236;139327;-63
2022/10/27 19:00:50;;;;;;;41.60;15.00;;;;;;;14.92;61.48;100189.99;226136;1241;139075;-65
2022/10/27 19:05:57;;;;;;;48.50;15.60;;;;;;;14.84;61.52;100189.60;227174;1228;139925;-62
2022/10/27 19:11:03;;;;;;;127.90;87.40;;;;;;;14.74;61.55;100193.75;227507;1234;254463;-60
2022/10/27 19:16:11;;;;;;;46.00;23.10;;;;;;;14.69;61.86;100196.21;227466;1233;140550;-63
2022/10/27 19:21:19;;;;;;;33.30;16.00;;;;;;;14.63;61.69;100200.31;226035;1240;141273;-62
2022/10/27 19:26:28;;;;;;;32.70;16.00;;;;;;;14.52;61.62;100201.54;227193;1231;140795;-66
2022/10/27 19:31:37;;;;;;;39.50;16.50;;;;;;;14.40;61.85;100201.66;226069;1244;139936;-67
2022/10/27 19:36:40;;;;;;;44.40;16.40;;;;;;;14.36;61.84;100205.26;226067;1236;140733;-65
2022/10/27 19:41:45;;;;;;;33.60;15.80;;;;;;;14.36;62.01;100199.77;226027;1243;139854;-65
2022/10/27 19:46:48;;;;;;;39.70;16.70;;;;;;;14.32;62.00;100196.65;227033;1237;139310;-64
2022/10/27 19:51:51;;;;;;;104.60;68.40;;;;;;;14.25;62.19;100199.91;226091;1238;139991;-64
2022/10/27 19:56:54;;;;;;;44.50;18.80;;;;;;;14.24;62.46;100199.24;226140;1243;140874;-67
2022/10/27 20:01:57;;;;;;;40.90;18.50;;;;;;;14.18;62.21;100199.23;226200;1243;139430;-62
2022/10/27 20:07:05;;;;;;;187.50;112.90;;;;;;;14.08;62.20;100199.11;227236;1233;140067;-66
2022/10/27 20:12:08;;;;;;;38.70;20.10;;;;;;;14.01;62.32;100194.89;226059;1243;139712;-63
2022/10/27 20:17:14;;;;;;;42.00;19.00;;;;;;;13.92;62.24;100193.97;227116;1238;139945;-65
2022/10/27 20:22:17;;;;;;;48.30;19.30;;;;;;;13.87;62.28;100200.30;227018;1234;140932;-64
2022/10/27 20:27:21;;;;;;;42.70;19.10;;;;;;;13.80;62.13;100198.00;226070;1240;140989;-65
2022/10/27 20:32:24;;;;;;;43.70;19.50;;;;;;;13.76;62.34;100194.52;226215;1234;139440;-67
2022/10/27 20:37:30;;;;;;;43.00;19.30;;;;;;;13.70;62.38;100195.56;226129;1236;140031;-60
2022/10/27 20:42:33;;;;;;;42.60;18.00;;;;;;;13.64;62.34;100193.21;226029;1236;141654;-64
2022/10/27 20:47:36;;;;;;;41.20;18.70;;;;;;;13.57;62.60;100192.20;226052;1238;139999;-62
2022/10/27 20:52:40;;;;;;;37.40;18.70;;;;;;;13.50;62.56;100193.11;227369;1227;140567;-64
2022/10/27 20:57:47;;;;;;;41.20;19.70;;;;;;;13.42;62.73;100197.26;226149;1243;140010;-67
2022/10/27 21:02:50;;;;;;;43.30;19.10;;;;;;;13.38;62.69;100195.76;226155;1241;139741;-68
2022/10/27 21:07:53;;;;;;;46.80;19.70;;;;;;;13.37;62.80;100200.98;226342;1236;140338;-66
2022/10/27 21:12:57;;;;;;;42.70;19.10;;;;;;;13.37;62.71;100198.97;226161;1248;141411;-63
2022/10/27 21:18:00;;;;;;;43.70;19.80;;;;;;;13.37;62.85;100194.35;226099;1248;139499;-64
2022/10/27 21:23:03;;;;;;;39.30;18.80;;;;;;;13.34;62.76;100189.55;226189;1241;140806;-66
2022/10/27 21:28:08;;;;;;;36.00;19.00;;;;;;;13.26;62.70;100185.50;226152;1237;139370;-65
2022/10/27 21:33:11;;;;;;;40.40;20.60;;;;;;;13.17;62.58;100184.36;227352;1227;140089;-65
2022/10/27 21:38:14;;;;;;;39.60;19.20;;;;;;;13.11;62.67;100179.39;226282;1238;139978;-65
2022/10/27 21:43:17;;;;;;;36.40;19.60;;;;;;;13.05;63.01;100179.70;227193;1233;141193;-67
2022/10/27 21:48:20;;;;;;;40.90;20.60;;;;;;;12.97;62.89;100179.20;226066;1240;141257;-68
2022/10/27 21:53:24;;;;;;;44.00;21.20;;;;;;;12.89;62.86;100176.83;226052;1243;140573;-67
2022/10/27 21:58:30;;;;;;;44.50;22.10;;;;;;;12.86;62.71;100173.60;227109;1230;140434;-63
2022/10/27 22:03:33;;;;;;;36.50;20.80;;;;;;;12.86;62.82;100167.86;226078;1247;140351;-62
2022/10/27 22:08:36;;;;;;;37.20;20.80;;;;;;;12.82;62.69;100170.40;227340;1236;141467;-68
2022/10/27 22:13:42;;;;;;;42.40;21.80;;;;;;;12.73;63.09;100174.21;226138;1243;140044;-67
2022/10/27 22:18:46;;;;;;;40.20;22.60;;;;;;;12.65;62.87;100178.04;227320;1236;139674;-66
2022/10/27 22:23:49;;;;;;;44.10;22.90;;;;;;;12.59;62.94;100178.37;226056;1243;141033;-64
2022/10/27 22:28:53;;;;;;;38.90;21.90;;;;;;;12.52;63.10;100185.13;226192;1245;139713;-67
2022/10/27 22:33:57;;;;;;;36.60;21.10;;;;;;;12.47;62.92;100182.72;227235;1233;139397;-62
2022/10/27 22:39:02;;;;;;;37.90;22.70;;;;;;;12.40;63.09;100186.84;226142;1243;141010;-62
2022/10/27 22:44:05;;;;;;;49.70;23.90;;;;;;;12.32;63.06;100188.67;226127;1243;139908;-65
2022/10/27 22:49:08;;;;;;;43.80;22.70;;;;;;;12.29;63.18;100185.23;227215;1220;140819;-67
2022/10/27 22:54:11;;;;;;;42.20;23.20;;;;;;;12.30;63.30;100189.82;226311;1249;140596;-65
2022/10/27 22:59:16;;;;;;;38.60;22.90;;;;;;;12.29;63.26;100190.05;226159;1236;140012;-67